Maxville, Missouri
Current Conditions -  °F | °C
As of 12:53 AM on Saturday 29 Nov 2014 (Local Time) from KCPS Reporting Station
Clear Clear  
Wind Chill: 34°   Ceiling: Unl
Heat Index: 40°   Visibility: 10mi
Dew Point: 34°   Wind: 8mph
Humidity: 79%   Direction: 160°SSE
Pressure: 29.88"   Gusts: NA
Location:  38.4305°N, 90.3985°W
Report Text: KCPS 290653Z AUTO 16007KT 10SM CLR 04/01 A2988 RMK AO2 SLP117 T00440011 TSNO
Loading
Personal Weather Stations






























Interactive Weather Map New forecast layout! Learn more

10-Day Weather Forecast

Advertisements
Track Severe Weather on mobile